Time;durP1;ratioP1;P1;durP2;ratioP2;P2;SDS_P1;SDS_P2;PMS_P1;PMS_P2;Temp;Humidity;BMP_temperature;BMP_pressure;BME280_temperature;BME280_humidity;BME280_pressure;Samples;Min_cycle;Max_cycle;Signal;HPM_P1;HPM_P2
2023/08/18 00:19:17;;;;;;;12.50;11.10;;;;;;;20.17;79.93;98909.58;436462;1253;106690;-42
2023/08/18 00:29:22;;;;;;;15.70;12.10;;;;;;;20.12;80.13;98914.35;428821;1254;10284028;-41
2023/08/18 00:39:30;;;;;;;16.00;13.10;;;;;;;20.17;80.41;98919.40;436452;1254;108661;-42
2023/08/18 00:49:37;;;;;;;16.10;13.20;;;;;;;20.15;80.58;98906.53;436354;1252;98039;-43
2023/08/18 00:59:44;;;;;;;16.60;13.10;;;;;;;20.19;80.63;98891.55;436333;1252;111255;-41
2023/08/18 01:09:50;;;;;;;18.60;12.80;;;;;;;20.13;80.49;98884.86;436178;1253;110429;-41
2023/08/18 01:19:58;;;;;;;18.50;12.40;;;;;;;19.91;80.35;98870.88;436421;1253;99244;-43
2023/08/18 01:30:07;;;;;;;18.40;13.10;;;;;;;19.81;80.59;98866.84;436322;1253;107814;-42
2023/08/18 01:40:14;;;;;;;14.90;12.20;;;;;;;19.78;80.80;98851.73;436378;1253;99231;-41
2023/08/18 01:50:20;;;;;;;14.30;12.60;;;;;;;19.69;80.82;98849.38;437170;1253;111360;-42
2023/08/18 02:00:27;;;;;;;16.20;12.30;;;;;;;19.61;80.93;98850.95;435438;1253;109369;-42
2023/08/18 02:10:32;;;;;;;17.40;13.00;;;;;;;19.61;81.04;98859.67;435476;1254;99224;-42
2023/08/18 02:20:39;;;;;;;15.10;11.90;;;;;;;19.53;81.06;98857.27;435409;1264;108081;-42
2023/08/18 02:30:47;;;;;;;18.00;13.30;;;;;;;19.39;80.88;98865.81;435432;1253;99314;-42
2023/08/18 02:40:54;;;;;;;17.80;13.30;;;;;;;19.21;81.38;98878.09;435415;1254;111060;-41
2023/08/18 03:01:09;;;;;;;17.50;12.50;;;;;;;19.19;81.65;98861.20;435310;1254;99466;-41
2023/08/18 03:11:17;;;;;;;25.10;13.20;;;;;;;19.10;81.71;98862.86;435437;1253;108743;-41
2023/08/18 03:21:22;;;;;;;15.90;12.60;;;;;;;19.05;82.21;98861.67;435288;1253;99235;-43
2023/08/18 03:41:37;;;;;;;18.40;13.80;;;;;;;19.16;82.28;98873.98;435323;1254;107665;-42
2023/08/18 04:11:54;;;;;;;13.40;12.00;;;;;;;19.27;82.81;98882.58;435499;1250;99244;-43
2023/08/18 04:22:02;;;;;;;17.80;13.10;;;;;;;19.32;82.84;98902.75;435266;1253;112002;-42
2023/08/18 04:32:09;;;;;;;17.20;13.70;;;;;;;19.35;82.84;98895.05;435404;1254;107792;-43
2023/08/18 04:42:16;;;;;;;20.70;15.10;;;;;;;19.37;82.82;98905.65;435246;1250;99326;-42
2023/08/18 05:02:28;;;;;;;19.40;14.70;;;;;;;19.31;83.01;98904.37;435217;1253;99221;-43
2023/08/18 05:12:35;;;;;;;26.50;15.00;;;;;;;19.33;83.41;98918.56;435403;1249;112182;-42
2023/08/18 05:22:42;;;;;;;18.40;13.90;;;;;;;19.55;83.56;98913.15;435225;1254;108620;-43
2023/08/18 05:32:48;;;;;;;14.00;12.40;;;;;;;19.68;83.48;98917.15;435455;1249;99234;-42
2023/08/18 05:42:55;;;;;;;19.40;13.90;;;;;;;19.80;83.57;98909.57;435269;1254;109865;-43
2023/08/18 06:13:14;;;;;;;17.40;12.60;;;;;;;19.95;83.80;98907.60;435276;1254;108376;-43
2023/08/18 06:33:27;;;;;;;17.50;14.20;;;;;;;20.03;84.04;98904.56;435135;1265;108583;-42
2023/08/18 06:43:34;;;;;;;16.60;13.10;;;;;;;20.12;84.15;98900.55;435386;1253;99233;-43
2023/08/18 06:53:41;;;;;;;20.10;13.70;;;;;;;20.15;84.33;98918.39;435294;1265;111993;-43
2023/08/18 07:24:00;;;;;;;16.50;11.60;;;;;;;20.81;85.15;98904.50;435210;1254;109331;-43
2023/08/18 07:34:06;;;;;;;;;;;;;;;21.37;84.75;98877.02;435217;1254;98949;-42
2023/08/18 07:44:14;;;;;;;13.10;11.70;;;;;;;22.31;85.53;98883.33;435298;1254;110846;-42
2023/08/18 07:54:23;;;;;;;9.80;8.80;;;;;;;23.80;85.18;98883.79;435319;1256;107702;-42
2023/08/18 08:04:29;;;;;;;12.50;9.80;;;;;;;24.15;83.30;98879.99;435373;1249;99263;-41
2023/08/18 08:14:36;;;;;;;11.40;9.10;;;;;;;24.62;82.03;98885.92;435239;1253;107844;-42
2023/08/18 08:24:41;;;;;;;;;;;;;;;25.00;81.27;98889.33;435487;1253;99221;-41
2023/08/18 08:34:50;;;;;;;14.10;12.70;;;;;;;24.85;80.57;98887.99;435394;1254;111437;-41
2023/08/18 08:44:56;;;;;;;14.90;13.40;;;;;;;24.80;80.07;98885.60;435231;1250;107484;-42
2023/08/18 08:55:05;;;;;;;16.60;13.70;;;;;;;25.24;79.87;98879.80;435332;1253;99218;-41
2023/08/18 09:05:14;;;;;;;13.90;12.50;;;;;;;25.29;78.24;98879.23;435246;1250;107316;-40
2023/08/18 09:15:22;;;;;;;15.10;13.60;;;;;;;25.82;77.33;98869.52;435215;1250;99275;-41
2023/08/18 09:25:27;;;;;;;14.60;11.70;;;;;;;26.60;76.83;98865.74;435220;1254;113630;-41
2023/08/18 09:35:32;;;;;;;13.40;11.20;;;;;;;27.08;74.85;98866.02;435268;1256;109352;-41
2023/08/18 09:45:40;;;;;;;14.00;12.10;;;;;;;27.28;73.42;98873.41;435270;1254;99244;-41
2023/08/18 09:55:51;;;;;;;13.20;11.80;;;;;;;27.48;72.05;98875.13;435325;1250;107724;-41
2023/08/18 10:05:59;;;;;;;15.30;12.50;;;;;;;27.39;69.44;98865.11;435199;1250;98006;-42
2023/08/18 10:16:05;;;;;;;13.60;11.20;;;;;;;27.57;68.98;98852.56;435457;1255;111405;-42
2023/08/18 10:26:12;;;;;;;20.70;13.20;;;;;;;28.13;67.94;98849.77;435261;1250;108609;-41
2023/08/18 10:46:25;;;;;;;15.20;13.70;;;;;;;28.10;65.77;98847.10;435282;1254;107214;-41
2023/08/18 10:56:30;;;;;;;17.90;14.50;;;;;;;27.89;66.08;98835.09;435336;1250;98766;-41
2023/08/18 11:06:36;;;;;;;16.40;14.40;;;;;;;27.67;66.06;98836.91;435311;1251;111856;-42
2023/08/18 11:16:42;;;;;;;17.70;14.60;;;;;;;27.96;66.14;98833.37;435261;1254;108356;-41
2023/08/18 11:26:48;;;;;;;15.00;13.50;;;;;;;28.16;65.56;98840.08;435225;1250;99236;-41
2023/08/18 11:36:59;;;;;;;16.10;14.60;;;;;;;28.25;64.78;98840.66;435464;1249;108541;-41
2023/08/18 11:47:09;;;;;;;16.30;14.60;;;;;;;28.12;64.53;98833.97;435379;1254;99340;-41
2023/08/18 12:07:20;;;;;;;22.60;16.60;;;;;;;28.78;63.02;98813.35;435190;1250;108137;-41
2023/08/18 12:17:27;;;;;;;18.20;16.20;;;;;;;28.37;62.49;98819.42;435289;1250;97993;-41
2023/08/18 12:37:42;;;;;;;19.00;14.80;;;;;;;27.33;64.73;98811.06;435153;1253;99231;-41
2023/08/18 12:47:48;;;;;;;18.50;16.70;;;;;;;27.70;65.03;98807.98;435476;1256;111623;-41
2023/08/18 12:57:54;;;;;;;17.80;16.30;;;;;;;27.65;64.91;98814.79;435292;1249;108299;-43
2023/08/18 13:08:02;;;;;;;16.50;14.90;;;;;;;27.89;64.82;98800.83;435487;1254;98023;-42
2023/08/18 13:18:08;;;;;;;18.70;16.80;;;;;;;27.96;64.35;98799.13;435356;1250;108890;-41
2023/08/18 13:28:16;;;;;;;17.30;15.30;;;;;;;27.69;64.29;98802.60;435367;1255;98415;-40
2023/08/18 13:38:22;;;;;;;16.80;15.10;;;;;;;27.70;64.54;98801.22;435403;1261;110094;-40
2023/08/18 13:48:29;;;;;;;17.50;15.90;;;;;;;27.84;64.95;98801.36;435202;1253;106917;-42
2023/08/18 13:58:36;;;;;;;20.00;17.20;;;;;;;28.14;64.62;98806.83;435386;1250;99214;-41
2023/08/18 14:08:43;;;;;;;18.40;16.60;;;;;;;28.28;63.99;98799.67;435281;1253;109476;-42
2023/08/18 14:18:49;;;;;;;17.30;15.80;;;;;;;28.27;63.32;98802.90;435362;1251;99336;-41
2023/08/18 14:28:55;;;;;;;17.90;16.10;;;;;;;27.76;63.16;98796.92;435246;1254;110438;-41
2023/08/18 15:09:22;;;;;;;15.30;13.90;;;;;;;27.22;64.00;98809.42;435462;1263;97986;-40
2023/08/18 15:19:29;;;;;;;16.70;15.20;;;;;;;27.04;64.29;98808.48;435337;1256;111042;-42
2023/08/18 15:49:48;;;;;;;16.20;14.90;;;;;;;26.56;65.84;98802.31;435240;1255;108592;-44
2023/08/18 15:59:56;;;;;;;14.50;13.10;;;;;;;26.39;66.59;98793.38;435228;1254;99320;-42
2023/08/18 16:10:04;;;;;;;17.30;15.40;;;;;;;26.25;67.10;98782.28;435465;1253;111358;-43
2023/08/18 16:30:18;;;;;;;17.10;15.20;;;;;;;25.93;67.70;98816.63;435379;1253;99830;-43
2023/08/18 16:40:25;;;;;;;16.00;14.40;;;;;;;25.69;68.38;98827.94;435335;1255;106818;-43
2023/08/18 17:10:45;;;;;;;15.20;13.80;;;;;;;24.75;70.32;98824.09;435324;1253;107449;-43
2023/08/18 17:31:04;;;;;;;17.20;15.20;;;;;;;24.06;72.03;98839.80;435284;1254;107694;-43
2023/08/18 17:41:10;;;;;;;17.10;13.80;;;;;;;23.76;72.34;98830.52;435539;1263;98509;-43
2023/08/18 17:51:16;;;;;;;15.00;13.40;;;;;;;23.57;72.45;98827.37;435373;1264;111840;-43
2023/08/18 18:01:23;;;;;;;15.10;12.80;;;;;;;23.28;72.50;98842.39;435372;1253;108329;-42
2023/08/18 18:11:29;;;;;;;12.00;9.90;;;;;;;23.05;72.53;98837.15;435256;1251;99378;-42
2023/08/18 18:21:36;;;;;;;12.30;10.90;;;;;;;22.90;72.57;98837.17;435345;1255;107208;-42
2023/08/18 18:31:41;;;;;;;15.20;10.70;;;;;;;22.84;72.87;98844.55;435340;1254;99047;-42
2023/08/18 18:51:54;;;;;;;13.60;12.10;;;;;;;22.53;73.32;98882.27;435339;1251;108168;-43
2023/08/18 19:12:06;;;;;;;15.40;13.80;;;;;;;22.39;74.23;98895.60;435275;1254;106987;-41
2023/08/18 19:32:23;;;;;;;16.50;15.00;;;;;;;22.45;74.81;98885.45;435439;1251;111170;-41
2023/08/18 19:42:29;;;;;;;17.50;14.90;;;;;;;22.19;74.59;98869.34;435374;1253;108744;-41
2023/08/18 19:52:36;;;;;;;16.10;14.50;;;;;;;21.98;74.94;98858.25;435460;1254;99237;-42
2023/08/18 20:02:43;;;;;;;17.30;14.30;;;;;;;21.88;75.36;98840.94;435469;1253;108190;-41
2023/08/18 20:12:49;;;;;;;14.70;13.20;;;;;;;21.79;75.73;98838.80;435356;1254;99317;-42
2023/08/18 20:33:03;;;;;;;16.70;14.40;;;;;;;21.57;76.23;98855.65;435181;1251;107868;-42
2023/08/18 20:43:10;;;;;;;17.30;14.10;;;;;;;21.39;76.62;98857.53;435367;1254;99262;-42
2023/08/18 20:53:17;;;;;;;18.00;14.30;;;;;;;21.45;77.14;98853.66;435314;1253;109286;-42
2023/08/18 21:03:25;;;;;;;13.30;12.00;;;;;;;21.59;77.30;98857.67;435235;1256;99247;-43
2023/08/18 21:13:33;;;;;;;16.40;14.70;;;;;;;21.47;77.17;98857.06;435415;1249;111189;-42
2023/08/18 21:23:40;;;;;;;15.50;13.80;;;;;;;21.36;77.61;98851.81;435335;1254;107707;-42
2023/08/18 21:43:51;;;;;;;16.80;13.70;;;;;;;21.27;78.01;98841.79;435598;1254;107673;-42
2023/08/18 21:53:58;;;;;;;15.00;13.10;;;;;;;21.14;78.12;98841.23;435277;1254;99310;-43
2023/08/18 22:14:11;;;;;;;15.80;13.30;;;;;;;20.92;78.43;98830.39;435134;1255;108214;-42
2023/08/18 22:24:17;;;;;;;16.00;14.20;;;;;;;20.91;78.85;98828.69;435272;1249;99227;-42
2023/08/18 22:34:24;;;;;;;21.50;16.80;;;;;;;20.77;78.67;98827.23;435364;1254;108039;-44
2023/08/18 22:44:31;;;;;;;19.70;15.20;;;;;;;20.70;79.11;98824.27;435296;1249;97983;-42
2023/08/18 22:54:40;;;;;;;19.60;13.70;;;;;;;20.74;79.33;98825.71;435347;1253;111309;-42
2023/08/18 23:04:47;;;;;;;14.90;13.40;;;;;;;20.58;79.36;98821.15;435366;1254;107110;-42
2023/08/18 23:14:54;;;;;;;19.20;14.20;;;;;;;20.49;79.68;98827.88;435301;1249;97987;-41
2023/08/18 23:25:02;;;;;;;16.00;13.80;;;;;;;20.33;79.74;98829.83;435224;1253;108508;-41
2023/08/18 23:35:08;;;;;;;;;;;;;;;20.22;80.19;98835.62;435388;1254;99164;-42
2023/08/18 23:45:15;;;;;;;17.00;14.90;;;;;;;20.31;80.68;98828.80;435522;1253;111317;-41
2023/08/18 23:55:22;;;;;;;16.60;13.60;;;;;;;20.34;80.94;98816.35;435273;1254;108393;-42
